sensor_id;sensor_type;location;lat;lon;timestamp;P1;durP1;ratioP1;P2;durP2;ratioP2
83288;SDS011;73193;50.866;5.420;2024-03-29T00:04:20;1.38;;;0.40;;
83288;SDS011;73193;50.866;5.420;2024-03-29T00:05:50;1.48;;;0.28;;
83288;SDS011;73193;50.866;5.420;2024-03-29T00:07:21;0.70;;;0.20;;
83288;SDS011;73193;50.866;5.420;2024-03-29T00:08:52;0.85;;;0.30;;
83288;SDS011;73193;50.866;5.420;2024-03-29T00:10:22;1.75;;;0.30;;
83288;SDS011;73193;50.866;5.420;2024-03-29T00:11:53;1.35;;;0.22;;
83288;SDS011;73193;50.866;5.420;2024-03-29T00:13:24;1.88;;;0.38;;
83288;SDS011;73193;50.866;5.420;2024-03-29T00:14:54;1.02;;;0.43;;
83288;SDS011;73193;50.866;5.420;2024-03-29T00:16:26;1.60;;;0.65;;
83288;SDS011;73193;50.866;5.420;2024-03-29T00:20:24;1.00;;;0.22;;
83288;SDS011;73193;50.866;5.420;2024-03-29T00:21:54;1.95;;;0.47;;
83288;SDS011;73193;50.866;5.420;2024-03-29T00:23:25;1.40;;;0.30;;
83288;SDS011;73193;50.866;5.420;2024-03-29T00:24:56;2.45;;;0.40;;
83288;SDS011;73193;50.866;5.420;2024-03-29T00:26:27;4.22;;;0.38;;
83288;SDS011;73193;50.866;5.420;2024-03-29T00:27:57;0.73;;;0.25;;
83288;SDS011;73193;50.866;5.420;2024-03-29T00:29:28;0.82;;;0.30;;
83288;SDS011;73193;50.866;5.420;2024-03-29T00:30:59;1.33;;;0.30;;
83288;SDS011;73193;50.866;5.420;2024-03-29T00:32:30;3.72;;;0.50;;
83288;SDS011;73193;50.866;5.420;2024-03-29T00:34:01;0.57;;;0.20;;
83288;SDS011;73193;50.866;5.420;2024-03-29T00:40:12;1.00;;;0.30;;
83288;SDS011;73193;50.866;5.420;2024-03-29T00:41:43;2.05;;;0.40;;
83288;SDS011;73193;50.866;5.420;2024-03-29T00:43:14;2.45;;;0.40;;
83288;SDS011;73193;50.866;5.420;2024-03-29T00:44:45;2.60;;;0.40;;
83288;SDS011;73193;50.866;5.420;2024-03-29T00:46:15;1.80;;;0.45;;
83288;SDS011;73193;50.866;5.420;2024-03-29T00:47:46;1.33;;;0.30;;
83288;SDS011;73193;50.866;5.420;2024-03-29T00:51:43;1.05;;;0.50;;
83288;SDS011;73193;50.866;5.420;2024-03-29T00:53:14;1.55;;;0.40;;
83288;SDS011;73193;50.866;5.420;2024-03-29T00:54:44;2.50;;;0.63;;
83288;SDS011;73193;50.866;5.420;2024-03-29T00:56:15;0.98;;;0.40;;
83288;SDS011;73193;50.866;5.420;2024-03-29T00:57:46;1.63;;;0.40;;
83288;SDS011;73193;50.866;5.420;2024-03-29T00:59:16;3.17;;;0.30;;
83288;SDS011;73193;50.866;5.420;2024-03-29T01:00:47;2.20;;;0.45;;
83288;SDS011;73193;50.866;5.420;2024-03-29T01:02:18;2.17;;;0.43;;
83288;SDS011;73193;50.866;5.420;2024-03-29T01:03:49;2.05;;;0.40;;
83288;SDS011;73193;50.866;5.420;2024-03-29T01:05:19;2.47;;;0.68;;
83288;SDS011;73193;50.866;5.420;2024-03-29T01:06:50;3.33;;;0.40;;
83288;SDS011;73193;50.866;5.420;2024-03-29T01:08:20;1.55;;;0.30;;
83288;SDS011;73193;50.866;5.420;2024-03-29T01:09:52;2.35;;;0.75;;
83288;SDS011;73193;50.866;5.420;2024-03-29T01:11:23;1.63;;;0.25;;
83288;SDS011;73193;50.866;5.420;2024-03-29T01:12:54;0.65;;;0.35;;
83288;SDS011;73193;50.866;5.420;2024-03-29T01:14:24;1.17;;;0.32;;
83288;SDS011;73193;50.866;5.420;2024-03-29T01:15:55;4.18;;;0.70;;
83288;SDS011;73193;50.866;5.420;2024-03-29T01:17:26;0.80;;;0.28;;
83288;SDS011;73193;50.866;5.420;2024-03-29T01:18:57;1.20;;;0.17;;
83288;SDS011;73193;50.866;5.420;2024-03-29T01:20:28;0.93;;;0.30;;
83288;SDS011;73193;50.866;5.420;2024-03-29T01:24:26;2.05;;;0.20;;
83288;SDS011;73193;50.866;5.420;2024-03-29T01:25:56;0.95;;;0.30;;
83288;SDS011;73193;50.866;5.420;2024-03-29T01:27:27;1.02;;;0.38;;
83288;SDS011;73193;50.866;5.420;2024-03-29T01:28:58;1.67;;;0.20;;
83288;SDS011;73193;50.866;5.420;2024-03-29T01:30:28;0.80;;;0.32;;
83288;SDS011;73193;50.866;5.420;2024-03-29T01:31:59;1.10;;;0.22;;
83288;SDS011;73193;50.866;5.420;2024-03-29T01:33:30;2.85;;;0.40;;
83288;SDS011;73193;50.866;5.420;2024-03-29T01:35:03;1.00;;;0.25;;
83288;SDS011;73193;50.866;5.420;2024-03-29T01:36:34;1.10;;;0.17;;
83288;SDS011;73193;50.866;5.420;2024-03-29T01:38:05;0.63;;;0.20;;
83288;SDS011;73193;50.866;5.420;2024-03-29T01:39:35;1.42;;;0.35;;
83288;SDS011;73193;50.866;5.420;2024-03-29T01:41:06;0.80;;;0.30;;
83288;SDS011;73193;50.866;5.420;2024-03-29T01:42:37;1.55;;;0.30;;
83288;SDS011;73193;50.866;5.420;2024-03-29T01:44:07;0.55;;;0.20;;
83288;SDS011;73193;50.866;5.420;2024-03-29T01:45:38;0.95;;;0.30;;
83288;SDS011;73193;50.866;5.420;2024-03-29T01:47:09;2.40;;;0.30;;
83288;SDS011;73193;50.866;5.420;2024-03-29T01:48:40;2.03;;;0.20;;
83288;SDS011;73193;50.866;5.420;2024-03-29T01:50:11;1.63;;;0.20;;
83288;SDS011;73193;50.866;5.420;2024-03-29T01:51:42;0.82;;;0.22;;
83288;SDS011;73193;50.866;5.420;2024-03-29T01:53:14;0.40;;;0.17;;
83288;SDS011;73193;50.866;5.420;2024-03-29T01:54:46;0.85;;;0.20;;
83288;SDS011;73193;50.866;5.420;2024-03-29T01:56:18;1.70;;;0.10;;
83288;SDS011;73193;50.866;5.420;2024-03-29T01:57:52;1.15;;;0.20;;
83288;SDS011;73193;50.866;5.420;2024-03-29T01:59:23;0.35;;;0.10;;
83288;SDS011;73193;50.866;5.420;2024-03-29T02:00:57;0.90;;;0.10;;
83288;SDS011;73193;50.866;5.420;2024-03-29T02:02:29;0.55;;;0.20;;
83288;SDS011;73193;50.866;5.420;2024-03-29T02:04:00;1.55;;;0.20;;
83288;SDS011;73193;50.866;5.420;2024-03-29T02:05:31;0.88;;;0.20;;
83288;SDS011;73193;50.866;5.420;2024-03-29T02:07:02;1.40;;;0.28;;
83288;SDS011;73193;50.866;5.420;2024-03-29T02:08:33;1.48;;;0.22;;
83288;SDS011;73193;50.866;5.420;2024-03-29T02:10:05;0.17;;;0.10;;
83288;SDS011;73193;50.866;5.420;2024-03-29T02:11:38;1.08;;;0.17;;
83288;SDS011;73193;50.866;5.420;2024-03-29T02:13:09;3.22;;;0.63;;
83288;SDS011;73193;50.866;5.420;2024-03-29T02:14:40;0.60;;;0.20;;
83288;SDS011;73193;50.866;5.420;2024-03-29T02:16:12;0.47;;;0.10;;
83288;SDS011;73193;50.866;5.420;2024-03-29T02:17:43;1.17;;;0.55;;
83288;SDS011;73193;50.866;5.420;2024-03-29T02:19:14;1.65;;;0.17;;
83288;SDS011;73193;50.866;5.420;2024-03-29T02:20:45;0.98;;;0.28;;
83288;SDS011;73193;50.866;5.420;2024-03-29T02:22:16;0.73;;;0.20;;
83288;SDS011;73193;50.866;5.420;2024-03-29T02:23:57;1.35;;;0.28;;
83288;SDS011;73193;50.866;5.420;2024-03-29T02:25:30;1.13;;;0.20;;
83288;SDS011;73193;50.866;5.420;2024-03-29T02:27:01;1.25;;;0.22;;
83288;SDS011;73193;50.866;5.420;2024-03-29T02:28:32;1.98;;;0.28;;
83288;SDS011;73193;50.866;5.420;2024-03-29T02:30:03;0.82;;;0.10;;
83288;SDS011;73193;50.866;5.420;2024-03-29T02:31:34;1.38;;;0.20;;
83288;SDS011;73193;50.866;5.420;2024-03-29T02:33:05;0.90;;;0.20;;
83288;SDS011;73193;50.866;5.420;2024-03-29T02:34:35;1.08;;;0.30;;
83288;SDS011;73193;50.866;5.420;2024-03-29T02:36:06;0.80;;;0.20;;
83288;SDS011;73193;50.866;5.420;2024-03-29T02:37:37;0.98;;;0.10;;
83288;SDS011;73193;50.866;5.420;2024-03-29T02:39:08;0.70;;;0.30;;
83288;SDS011;73193;50.866;5.420;2024-03-29T02:40:39;1.58;;;0.20;;
83288;SDS011;73193;50.866;5.420;2024-03-29T02:42:10;1.27;;;0.10;;
83288;SDS011;73193;50.866;5.420;2024-03-29T02:43:40;0.68;;;0.28;;
83288;SDS011;73193;50.866;5.420;2024-03-29T02:45:11;2.50;;;0.20;;
83288;SDS011;73193;50.866;5.420;2024-03-29T02:46:42;2.03;;;0.32;;
83288;SDS011;73193;50.866;5.420;2024-03-29T02:48:13;2.60;;;0.57;;
83288;SDS011;73193;50.866;5.420;2024-03-29T02:49:43;0.80;;;0.22;;
83288;SDS011;73193;50.866;5.420;2024-03-29T02:51:14;0.50;;;0.38;;
83288;SDS011;73193;50.866;5.420;2024-03-29T02:52:45;0.32;;;0.20;;
83288;SDS011;73193;50.866;5.420;2024-03-29T02:54:15;1.40;;;0.35;;
83288;SDS011;73193;50.866;5.420;2024-03-29T02:55:46;1.67;;;0.30;;
83288;SDS011;73193;50.866;5.420;2024-03-29T02:57:16;1.98;;;0.40;;
83288;SDS011;73193;50.866;5.420;2024-03-29T02:58:47;2.03;;;0.20;;
83288;SDS011;73193;50.866;5.420;2024-03-29T03:00:18;1.30;;;0.30;;
83288;SDS011;73193;50.866;5.420;2024-03-29T03:01:49;1.85;;;0.40;;
83288;SDS011;73193;50.866;5.420;2024-03-29T03:03:19;2.65;;;0.50;;
83288;SDS011;73193;50.866;5.420;2024-03-29T03:04:50;1.80;;;0.40;;
83288;SDS011;73193;50.866;5.420;2024-03-29T03:06:21;2.53;;;0.70;;
83288;SDS011;73193;50.866;5.420;2024-03-29T03:07:52;0.73;;;0.30;;
83288;SDS011;73193;50.866;5.420;2024-03-29T03:09:40;2.35;;;0.40;;
83288;SDS011;73193;50.866;5.420;2024-03-29T03:11:29;2.67;;;0.40;;
83288;SDS011;73193;50.866;5.420;2024-03-29T03:13:00;3.80;;;0.55;;
83288;SDS011;73193;50.866;5.420;2024-03-29T03:14:31;0.60;;;0.32;;
83288;SDS011;73193;50.866;5.420;2024-03-29T03:16:02;1.40;;;0.40;;
83288;SDS011;73193;50.866;5.420;2024-03-29T03:17:33;0.57;;;0.20;;
83288;SDS011;73193;50.866;5.420;2024-03-29T03:19:03;1.13;;;0.30;;
83288;SDS011;73193;50.866;5.420;2024-03-29T03:20:34;1.50;;;0.43;;
83288;SDS011;73193;50.866;5.420;2024-03-29T03:22:05;1.52;;;0.63;;
83288;SDS011;73193;50.866;5.420;2024-03-29T03:23:35;2.35;;;0.30;;
83288;SDS011;73193;50.866;5.420;2024-03-29T03:25:06;0.40;;;0.20;;
83288;SDS011;73193;50.866;5.420;2024-03-29T03:26:37;1.65;;;0.20;;
83288;SDS011;73193;50.866;5.420;2024-03-29T03:28:08;1.52;;;0.43;;
83288;SDS011;73193;50.866;5.420;2024-03-29T03:29:39;1.00;;;0.35;;
83288;SDS011;73193;50.866;5.420;2024-03-29T03:31:10;0.65;;;0.20;;
83288;SDS011;73193;50.866;5.420;2024-03-29T03:32:41;1.10;;;0.40;;
83288;SDS011;73193;50.866;5.420;2024-03-29T03:34:11;1.38;;;0.70;;
83288;SDS011;73193;50.866;5.420;2024-03-29T03:35:42;2.03;;;0.20;;
83288;SDS011;73193;50.866;5.420;2024-03-29T03:37:13;0.73;;;0.20;;
83288;SDS011;73193;50.866;5.420;2024-03-29T03:38:44;2.05;;;0.35;;
83288;SDS011;73193;50.866;5.420;2024-03-29T03:40:15;0.93;;;0.22;;
83288;SDS011;73193;50.866;5.420;2024-03-29T03:41:45;2.33;;;0.43;;
83288;SDS011;73193;50.866;5.420;2024-03-29T03:43:17;0.73;;;0.40;;
83288;SDS011;73193;50.866;5.420;2024-03-29T03:44:47;1.08;;;0.30;;
83288;SDS011;73193;50.866;5.420;2024-03-29T03:48:45;1.20;;;0.13;;
83288;SDS011;73193;50.866;5.420;2024-03-29T03:50:15;0.98;;;0.20;;
83288;SDS011;73193;50.866;5.420;2024-03-29T03:51:46;1.42;;;0.40;;
83288;SDS011;73193;50.866;5.420;2024-03-29T03:53:17;1.58;;;0.30;;
83288;SDS011;73193;50.866;5.420;2024-03-29T03:54:47;1.88;;;0.35;;
83288;SDS011;73193;50.866;5.420;2024-03-29T03:58:45;0.63;;;0.22;;
83288;SDS011;73193;50.866;5.420;2024-03-29T04:00:17;1.13;;;0.30;;
83288;SDS011;73193;50.866;5.420;2024-03-29T04:01:48;1.75;;;0.40;;
83288;SDS011;73193;50.866;5.420;2024-03-29T04:03:21;3.25;;;0.30;;
83288;SDS011;73193;50.866;5.420;2024-03-29T04:07:19;1.77;;;0.30;;
83288;SDS011;73193;50.866;5.420;2024-03-29T04:08:49;1.70;;;0.40;;
83288;SDS011;73193;50.866;5.420;2024-03-29T04:10:20;1.30;;;0.38;;
83288;SDS011;73193;50.866;5.420;2024-03-29T04:11:51;2.95;;;0.47;;
83288;SDS011;73193;50.866;5.420;2024-03-29T04:13:22;1.92;;;0.30;;
83288;SDS011;73193;50.866;5.420;2024-03-29T04:14:53;1.35;;;0.30;;
83288;SDS011;73193;50.866;5.420;2024-03-29T04:16:23;1.58;;;0.20;;
83288;SDS011;73193;50.866;5.420;2024-03-29T04:17:54;1.98;;;0.35;;
83288;SDS011;73193;50.866;5.420;2024-03-29T04:19:26;1.08;;;0.20;;
83288;SDS011;73193;50.866;5.420;2024-03-29T04:21:00;0.93;;;0.25;;
83288;SDS011;73193;50.866;5.420;2024-03-29T04:22:32;1.58;;;0.40;;
83288;SDS011;73193;50.866;5.420;2024-03-29T04:24:03;1.42;;;0.30;;
83288;SDS011;73193;50.866;5.420;2024-03-29T04:25:37;2.10;;;0.47;;
83288;SDS011;73193;50.866;5.420;2024-03-29T04:27:08;1.73;;;0.35;;
83288;SDS011;73193;50.866;5.420;2024-03-29T04:28:38;0.88;;;0.20;;
83288;SDS011;73193;50.866;5.420;2024-03-29T04:30:09;1.55;;;0.30;;
83288;SDS011;73193;50.866;5.420;2024-03-29T04:31:40;0.75;;;0.30;;
83288;SDS011;73193;50.866;5.420;2024-03-29T04:33:11;0.65;;;0.20;;
83288;SDS011;73193;50.866;5.420;2024-03-29T04:34:41;2.78;;;0.80;;
83288;SDS011;73193;50.866;5.420;2024-03-29T04:36:12;1.58;;;0.30;;
83288;SDS011;73193;50.866;5.420;2024-03-29T04:37:43;0.82;;;0.28;;
83288;SDS011;73193;50.866;5.420;2024-03-29T04:39:13;1.15;;;0.30;;
83288;SDS011;73193;50.866;5.420;2024-03-29T04:40:44;1.10;;;0.45;;
83288;SDS011;73193;50.866;5.420;2024-03-29T04:42:15;1.52;;;0.32;;
83288;SDS011;73193;50.866;5.420;2024-03-29T04:43:45;1.33;;;0.35;;
83288;SDS011;73193;50.866;5.420;2024-03-29T04:45:16;3.97;;;0.40;;
83288;SDS011;73193;50.866;5.420;2024-03-29T04:46:47;4.03;;;0.52;;
83288;SDS011;73193;50.866;5.420;2024-03-29T04:48:19;1.92;;;0.40;;
83288;SDS011;73193;50.866;5.420;2024-03-29T04:49:50;2.70;;;0.47;;
83288;SDS011;73193;50.866;5.420;2024-03-29T04:51:21;2.35;;;0.40;;
83288;SDS011;73193;50.866;5.420;2024-03-29T04:52:51;1.38;;;0.40;;
83288;SDS011;73193;50.866;5.420;2024-03-29T04:56:49;1.23;;;0.40;;
83288;SDS011;73193;50.866;5.420;2024-03-29T04:58:19;1.10;;;0.40;;
83288;SDS011;73193;50.866;5.420;2024-03-29T04:59:51;1.08;;;0.55;;
83288;SDS011;73193;50.866;5.420;2024-03-29T05:01:21;1.95;;;0.40;;
83288;SDS011;73193;50.866;5.420;2024-03-29T05:02:52;1.33;;;0.40;;
83288;SDS011;73193;50.866;5.420;2024-03-29T05:06:49;1.48;;;0.50;;
83288;SDS011;73193;50.866;5.420;2024-03-29T05:08:20;2.03;;;0.70;;
83288;SDS011;73193;50.866;5.420;2024-03-29T05:09:52;1.70;;;0.40;;
83288;SDS011;73193;50.866;5.420;2024-03-29T05:11:23;2.85;;;0.43;;
83288;SDS011;73193;50.866;5.420;2024-03-29T05:12:53;1.50;;;0.40;;
83288;SDS011;73193;50.866;5.420;2024-03-29T05:14:24;0.95;;;0.30;;
83288;SDS011;73193;50.866;5.420;2024-03-29T05:15:55;0.73;;;0.40;;
83288;SDS011;73193;50.866;5.420;2024-03-29T05:17:25;0.68;;;0.38;;
83288;SDS011;73193;50.866;5.420;2024-03-29T05:18:57;0.55;;;0.30;;
83288;SDS011;73193;50.866;5.420;2024-03-29T05:20:28;2.30;;;0.38;;
83288;SDS011;73193;50.866;5.420;2024-03-29T05:21:59;1.30;;;0.50;;
83288;SDS011;73193;50.866;5.420;2024-03-29T05:23:30;1.85;;;0.40;;
83288;SDS011;73193;50.866;5.420;2024-03-29T05:25:01;1.20;;;0.60;;
83288;SDS011;73193;50.866;5.420;2024-03-29T05:26:33;1.77;;;0.50;;
83288;SDS011;73193;50.866;5.420;2024-03-29T05:28:04;1.98;;;0.50;;
83288;SDS011;73193;50.866;5.420;2024-03-29T05:29:37;3.28;;;0.82;;
83288;SDS011;73193;50.866;5.420;2024-03-29T05:31:14;0.77;;;0.40;;
83288;SDS011;73193;50.866;5.420;2024-03-29T05:32:45;2.67;;;0.88;;
83288;SDS011;73193;50.866;5.420;2024-03-29T05:34:15;1.80;;;0.43;;
83288;SDS011;73193;50.866;5.420;2024-03-29T05:35:46;1.02;;;0.40;;
83288;SDS011;73193;50.866;5.420;2024-03-29T05:37:17;1.65;;;0.40;;
83288;SDS011;73193;50.866;5.420;2024-03-29T05:38:48;1.50;;;0.30;;
83288;SDS011;73193;50.866;5.420;2024-03-29T05:40:19;3.30;;;0.60;;
83288;SDS011;73193;50.866;5.420;2024-03-29T05:41:55;2.50;;;0.50;;
83288;SDS011;73193;50.866;5.420;2024-03-29T05:43:25;1.02;;;0.38;;
83288;SDS011;73193;50.866;5.420;2024-03-29T05:47:23;0.85;;;0.40;;
83288;SDS011;73193;50.866;5.420;2024-03-29T05:53:47;1.00;;;0.60;;
83288;SDS011;73193;50.866;5.420;2024-03-29T05:55:18;1.67;;;0.60;;
83288;SDS011;73193;50.866;5.420;2024-03-29T05:56:49;2.88;;;0.70;;
83288;SDS011;73193;50.866;5.420;2024-03-29T05:58:19;3.63;;;0.90;;
83288;SDS011;73193;50.866;5.420;2024-03-29T05:59:51;1.17;;;0.50;;
83288;SDS011;73193;50.866;5.420;2024-03-29T06:01:22;3.05;;;0.90;;
83288;SDS011;73193;50.866;5.420;2024-03-29T06:02:53;1.75;;;0.60;;
83288;SDS011;73193;50.866;5.420;2024-03-29T06:04:24;1.23;;;0.40;;
83288;SDS011;73193;50.866;5.420;2024-03-29T06:06:02;2.20;;;0.60;;
83288;SDS011;73193;50.866;5.420;2024-03-29T06:07:32;2.85;;;0.95;;
83288;SDS011;73193;50.866;5.420;2024-03-29T06:09:03;2.80;;;0.63;;
83288;SDS011;73193;50.866;5.420;2024-03-29T06:10:34;1.35;;;0.40;;
83288;SDS011;73193;50.866;5.420;2024-03-29T06:12:05;2.67;;;0.70;;
83288;SDS011;73193;50.866;5.420;2024-03-29T06:13:37;0.57;;;0.38;;
83288;SDS011;73193;50.866;5.420;2024-03-29T06:15:23;2.70;;;0.70;;
83288;SDS011;73193;50.866;5.420;2024-03-29T06:18:52;1.50;;;0.50;;
83288;SDS011;73193;50.866;5.420;2024-03-29T06:20:23;2.53;;;0.70;;
83288;SDS011;73193;50.866;5.420;2024-03-29T06:21:54;2.60;;;0.80;;
83288;SDS011;73193;50.866;5.420;2024-03-29T06:23:25;2.58;;;1.02;;
83288;SDS011;73193;50.866;5.420;2024-03-29T06:24:56;2.47;;;0.80;;
83288;SDS011;73193;50.866;5.420;2024-03-29T06:26:34;3.08;;;0.57;;
83288;SDS011;73193;50.866;5.420;2024-03-29T06:28:05;1.20;;;0.65;;
83288;SDS011;73193;50.866;5.420;2024-03-29T06:29:36;3.70;;;0.70;;
83288;SDS011;73193;50.866;5.420;2024-03-29T06:31:06;1.60;;;0.77;;
83288;SDS011;73193;50.866;5.420;2024-03-29T06:32:37;2.55;;;1.00;;
83288;SDS011;73193;50.866;5.420;2024-03-29T06:34:08;1.58;;;0.70;;
83288;SDS011;73193;50.866;5.420;2024-03-29T06:35:38;3.33;;;0.98;;
83288;SDS011;73193;50.866;5.420;2024-03-29T06:37:09;2.70;;;1.13;;
83288;SDS011;73193;50.866;5.420;2024-03-29T06:38:40;2.80;;;0.85;;
83288;SDS011;73193;50.866;5.420;2024-03-29T06:45:04;2.08;;;1.17;;
83288;SDS011;73193;50.866;5.420;2024-03-29T06:46:35;1.90;;;1.10;;
83288;SDS011;73193;50.866;5.420;2024-03-29T06:48:06;2.65;;;1.13;;
83288;SDS011;73193;50.866;5.420;2024-03-29T06:49:38;3.15;;;1.15;;
83288;SDS011;73193;50.866;5.420;2024-03-29T06:51:09;1.55;;;1.30;;
83288;SDS011;73193;50.866;5.420;2024-03-29T06:52:40;2.13;;;1.00;;
83288;SDS011;73193;50.866;5.420;2024-03-29T06:58:55;29.13;;;4.53;;
83288;SDS011;73193;50.866;5.420;2024-03-29T07:00:26;11.88;;;2.50;;
83288;SDS011;73193;50.866;5.420;2024-03-29T07:01:56;3.05;;;1.02;;
83288;SDS011;73193;50.866;5.420;2024-03-29T07:03:27;3.92;;;1.00;;
83288;SDS011;73193;50.866;5.420;2024-03-29T07:04:58;4.60;;;0.90;;
83288;SDS011;73193;50.866;5.420;2024-03-29T07:08:08;3.65;;;1.33;;
83288;SDS011;73193;50.866;5.420;2024-03-29T07:09:38;3.25;;;0.90;;
83288;SDS011;73193;50.866;5.420;2024-03-29T07:11:09;1.95;;;0.70;;
83288;SDS011;73193;50.866;5.420;2024-03-29T07:12:40;2.15;;;1.00;;
83288;SDS011;73193;50.866;5.420;2024-03-29T07:14:11;5.28;;;0.95;;
83288;SDS011;73193;50.866;5.420;2024-03-29T07:15:50;3.03;;;0.80;;
83288;SDS011;73193;50.866;5.420;2024-03-29T07:17:21;1.70;;;0.70;;
83288;SDS011;73193;50.866;5.420;2024-03-29T07:18:52;1.40;;;0.80;;
83288;SDS011;73193;50.866;5.420;2024-03-29T07:20:22;2.45;;;0.75;;
83288;SDS011;73193;50.866;5.420;2024-03-29T07:21:53;1.48;;;0.80;;
83288;SDS011;73193;50.866;5.420;2024-03-29T07:23:24;2.25;;;0.80;;
83288;SDS011;73193;50.866;5.420;2024-03-29T07:24:54;1.95;;;1.02;;
83288;SDS011;73193;50.866;5.420;2024-03-29T07:26:25;1.75;;;0.88;;
83288;SDS011;73193;50.866;5.420;2024-03-29T07:27:56;3.67;;;1.00;;
83288;SDS011;73193;50.866;5.420;2024-03-29T07:29:26;1.88;;;0.95;;
83288;SDS011;73193;50.866;5.420;2024-03-29T07:30:57;1.55;;;0.80;;
83288;SDS011;73193;50.866;5.420;2024-03-29T07:32:36;2.03;;;0.90;;
83288;SDS011;73193;50.866;5.420;2024-03-29T07:34:07;2.53;;;0.73;;
83288;SDS011;73193;50.866;5.420;2024-03-29T07:35:38;3.25;;;0.68;;
83288;SDS011;73193;50.866;5.420;2024-03-29T07:37:11;1.63;;;0.70;;
83288;SDS011;73193;50.866;5.420;2024-03-29T07:38:45;0.90;;;0.63;;
83288;SDS011;73193;50.866;5.420;2024-03-29T07:40:15;1.00;;;0.85;;
83288;SDS011;73193;50.866;5.420;2024-03-29T07:44:12;1.95;;;0.88;;
83288;SDS011;73193;50.866;5.420;2024-03-29T07:45:43;2.10;;;1.38;;
83288;SDS011;73193;50.866;5.420;2024-03-29T07:48:45;1.10;;;0.80;;
83288;SDS011;73193;50.866;5.420;2024-03-29T07:50:16;2.28;;;0.75;;
83288;SDS011;73193;50.866;5.420;2024-03-29T07:51:47;2.80;;;0.90;;
83288;SDS011;73193;50.866;5.420;2024-03-29T07:53:18;1.67;;;1.02;;
83288;SDS011;73193;50.866;5.420;2024-03-29T07:54:49;2.72;;;0.90;;
83288;SDS011;73193;50.866;5.420;2024-03-29T07:56:19;1.23;;;0.80;;
83288;SDS011;73193;50.866;5.420;2024-03-29T07:57:51;2.47;;;0.70;;
83288;SDS011;73193;50.866;5.420;2024-03-29T07:59:22;1.88;;;0.63;;
83288;SDS011;73193;50.866;5.420;2024-03-29T08:00:52;2.42;;;1.02;;
83288;SDS011;73193;50.866;5.420;2024-03-29T08:02:23;1.50;;;0.90;;
83288;SDS011;73193;50.866;5.420;2024-03-29T08:03:54;1.50;;;0.80;;
83288;SDS011;73193;50.866;5.420;2024-03-29T08:05:25;1.27;;;0.95;;
83288;SDS011;73193;50.866;5.420;2024-03-29T08:06:56;1.40;;;0.60;;
83288;SDS011;73193;50.866;5.420;2024-03-29T08:08:27;7.18;;;1.25;;
83288;SDS011;73193;50.866;5.420;2024-03-29T08:09:57;5.65;;;1.65;;
83288;SDS011;73193;50.866;5.420;2024-03-29T08:13:55;2.15;;;0.85;;
83288;SDS011;73193;50.866;5.420;2024-03-29T08:15:26;3.33;;;0.80;;
83288;SDS011;73193;50.866;5.420;2024-03-29T08:16:57;0.95;;;0.80;;
83288;SDS011;73193;50.866;5.420;2024-03-29T08:18:32;1.90;;;0.82;;
83288;SDS011;73193;50.866;5.420;2024-03-29T08:20:06;0.70;;;0.50;;
83288;SDS011;73193;50.866;5.420;2024-03-29T08:21:37;3.35;;;0.88;;
83288;SDS011;73193;50.866;5.420;2024-03-29T08:23:08;1.30;;;0.70;;
83288;SDS011;73193;50.866;5.420;2024-03-29T08:24:38;1.58;;;0.70;;
83288;SDS011;73193;50.866;5.420;2024-03-29T08:26:10;2.15;;;0.90;;
83288;SDS011;73193;50.866;5.420;2024-03-29T08:27:41;1.45;;;0.70;;
83288;SDS011;73193;50.866;5.420;2024-03-29T08:29:11;1.70;;;0.90;;
83288;SDS011;73193;50.866;5.420;2024-03-29T08:30:42;2.03;;;1.00;;
83288;SDS011;73193;50.866;5.420;2024-03-29T08:32:13;1.27;;;0.80;;
83288;SDS011;73193;50.866;5.420;2024-03-29T08:33:43;2.38;;;0.98;;
83288;SDS011;73193;50.866;5.420;2024-03-29T08:35:14;1.23;;;0.65;;
83288;SDS011;73193;50.866;5.420;2024-03-29T08:36:45;1.20;;;0.75;;
83288;SDS011;73193;50.866;5.420;2024-03-29T08:38:15;1.15;;;0.63;;
83288;SDS011;73193;50.866;5.420;2024-03-29T08:39:46;3.22;;;0.90;;
83288;SDS011;73193;50.866;5.420;2024-03-29T08:41:17;0.80;;;0.57;;
83288;SDS011;73193;50.866;5.420;2024-03-29T08:42:48;1.73;;;0.52;;
83288;SDS011;73193;50.866;5.420;2024-03-29T08:44:18;1.17;;;0.70;;
83288;SDS011;73193;50.866;5.420;2024-03-29T08:45:49;2.58;;;0.98;;
83288;SDS011;73193;50.866;5.420;2024-03-29T08:47:20;1.35;;;0.70;;
83288;SDS011;73193;50.866;5.420;2024-03-29T08:48:51;1.17;;;0.60;;
83288;SDS011;73193;50.866;5.420;2024-03-29T08:50:21;2.38;;;0.80;;
83288;SDS011;73193;50.866;5.420;2024-03-29T08:51:52;2.70;;;0.95;;
83288;SDS011;73193;50.866;5.420;2024-03-29T08:53:23;2.13;;;1.10;;
83288;SDS011;73193;50.866;5.420;2024-03-29T08:54:53;2.60;;;1.05;;
83288;SDS011;73193;50.866;5.420;2024-03-29T08:56:24;0.90;;;0.43;;
83288;SDS011;73193;50.866;5.420;2024-03-29T08:57:54;1.48;;;0.63;;
83288;SDS011;73193;50.866;5.420;2024-03-29T08:59:26;1.70;;;0.90;;
83288;SDS011;73193;50.866;5.420;2024-03-29T09:00:58;1.33;;;0.70;;
83288;SDS011;73193;50.866;5.420;2024-03-29T09:02:29;1.60;;;0.52;;
83288;SDS011;73193;50.866;5.420;2024-03-29T09:04:00;1.00;;;0.60;;
83288;SDS011;73193;50.866;5.420;2024-03-29T09:05:30;0.80;;;0.50;;
83288;SDS011;73193;50.866;5.420;2024-03-29T09:07:01;1.27;;;0.68;;
83288;SDS011;73193;50.866;5.420;2024-03-29T09:08:33;1.50;;;0.75;;
83288;SDS011;73193;50.866;5.420;2024-03-29T09:10:04;0.32;;;0.32;;
83288;SDS011;73193;50.866;5.420;2024-03-29T09:11:35;1.25;;;0.70;;
83288;SDS011;73193;50.866;5.420;2024-03-29T09:13:06;1.13;;;0.57;;
83288;SDS011;73193;50.866;5.420;2024-03-29T09:14:39;1.20;;;0.60;;
83288;SDS011;73193;50.866;5.420;2024-03-29T09:16:10;2.50;;;1.30;;
83288;SDS011;73193;50.866;5.420;2024-03-29T09:17:41;1.40;;;0.50;;
83288;SDS011;73193;50.866;5.420;2024-03-29T09:19:15;0.75;;;0.50;;
83288;SDS011;73193;50.866;5.420;2024-03-29T09:20:46;1.10;;;0.57;;
83288;SDS011;73193;50.866;5.420;2024-03-29T09:22:16;1.40;;;0.50;;
83288;SDS011;73193;50.866;5.420;2024-03-29T09:23:47;1.25;;;0.70;;
83288;SDS011;73193;50.866;5.420;2024-03-29T09:25:20;1.08;;;0.40;;
83288;SDS011;73193;50.866;5.420;2024-03-29T09:26:51;1.98;;;0.60;;
83288;SDS011;73193;50.866;5.420;2024-03-29T09:28:22;1.98;;;0.50;;
83288;SDS011;73193;50.866;5.420;2024-03-29T09:31:27;1.05;;;0.50;;
83288;SDS011;73193;50.866;5.420;2024-03-29T09:32:57;1.88;;;0.50;;
83288;SDS011;73193;50.866;5.420;2024-03-29T09:34:28;1.40;;;0.50;;
83288;SDS011;73193;50.866;5.420;2024-03-29T09:36:00;1.67;;;0.40;;
83288;SDS011;73193;50.866;5.420;2024-03-29T09:37:31;1.50;;;0.65;;
83288;SDS011;73193;50.866;5.420;2024-03-29T09:39:06;1.20;;;0.70;;
83288;SDS011;73193;50.866;5.420;2024-03-29T09:40:38;1.45;;;0.55;;
83288;SDS011;73193;50.866;5.420;2024-03-29T09:42:09;2.03;;;0.70;;
83288;SDS011;73193;50.866;5.420;2024-03-29T09:43:46;2.20;;;0.60;;
83288;SDS011;73193;50.866;5.420;2024-03-29T09:45:17;2.78;;;0.70;;
83288;SDS011;73193;50.866;5.420;2024-03-29T09:46:50;0.45;;;0.30;;
83288;SDS011;73193;50.866;5.420;2024-03-29T09:48:23;2.38;;;0.47;;
83288;SDS011;73193;50.866;5.420;2024-03-29T09:51:26;2.05;;;0.40;;
83288;SDS011;73193;50.866;5.420;2024-03-29T09:54:29;1.33;;;0.45;;
83288;SDS011;73193;50.866;5.420;2024-03-29T09:57:31;0.45;;;0.40;;
83288;SDS011;73193;50.866;5.420;2024-03-29T09:59:02;0.73;;;0.40;;
83288;SDS011;73193;50.866;5.420;2024-03-29T10:00:33;2.65;;;0.93;;
83288;SDS011;73193;50.866;5.420;2024-03-29T10:02:05;0.73;;;0.30;;
83288;SDS011;73193;50.866;5.420;2024-03-29T10:03:45;0.65;;;0.35;;
83288;SDS011;73193;50.866;5.420;2024-03-29T10:05:20;0.55;;;0.20;;
83288;SDS011;73193;50.866;5.420;2024-03-29T10:06:52;1.40;;;0.50;;
83288;SDS011;73193;50.866;5.420;2024-03-29T10:09:57;1.05;;;0.30;;
83288;SDS011;73193;50.866;5.420;2024-03-29T10:11:30;1.40;;;0.68;;
83288;SDS011;73193;50.866;5.420;2024-03-29T10:13:01;1.13;;;0.40;;